sensor_id;sensor_type;location;lat;lon;timestamp;temperature;humidity
11812;DHT22;5963;50.184;9.162;2023-09-07T00:00:47;17.20;99.90
11812;DHT22;5963;50.184;9.162;2023-09-07T00:03:15;17.30;99.90
11812;DHT22;5963;50.184;9.162;2023-09-07T00:05:48;17.30;99.90
11812;DHT22;5963;50.184;9.162;2023-09-07T00:08:16;17.30;99.90
11812;DHT22;5963;50.184;9.162;2023-09-07T00:10:44;17.10;99.90
11812;DHT22;5963;50.184;9.162;2023-09-07T00:13:13;17.10;99.90
11812;DHT22;5963;50.184;9.162;2023-09-07T00:15:42;17.10;99.90
11812;DHT22;5963;50.184;9.162;2023-09-07T00:18:11;17.10;99.90
11812;DHT22;5963;50.184;9.162;2023-09-07T00:20:39;16.90;99.90
11812;DHT22;5963;50.184;9.162;2023-09-07T00:23:08;16.90;99.90
11812;DHT22;5963;50.184;9.162;2023-09-07T00:25:36;16.90;99.90
11812;DHT22;5963;50.184;9.162;2023-09-07T00:28:05;17.00;99.90
11812;DHT22;5963;50.184;9.162;2023-09-07T00:30:33;17.00;99.90
11812;DHT22;5963;50.184;9.162;2023-09-07T00:33:00;16.90;99.90
11812;DHT22;5963;50.184;9.162;2023-09-07T00:35:30;16.90;99.90
11812;DHT22;5963;50.184;9.162;2023-09-07T00:37:58;16.90;99.90
11812;DHT22;5963;50.184;9.162;2023-09-07T00:40:26;16.80;99.90
11812;DHT22;5963;50.184;9.162;2023-09-07T00:42:54;16.80;99.90
11812;DHT22;5963;50.184;9.162;2023-09-07T00:45:24;16.80;99.90
11812;DHT22;5963;50.184;9.162;2023-09-07T00:47:53;16.80;99.90
11812;DHT22;5963;50.184;9.162;2023-09-07T00:50:22;16.80;99.90
11812;DHT22;5963;50.184;9.162;2023-09-07T00:52:52;16.70;99.90
11812;DHT22;5963;50.184;9.162;2023-09-07T00:55:20;16.70;99.90
11812;DHT22;5963;50.184;9.162;2023-09-07T00:57:49;16.70;99.90
11812;DHT22;5963;50.184;9.162;2023-09-07T01:00:17;16.70;99.90
11812;DHT22;5963;50.184;9.162;2023-09-07T01:02:45;16.60;99.90
11812;DHT22;5963;50.184;9.162;2023-09-07T01:05:14;16.60;99.90
11812;DHT22;5963;50.184;9.162;2023-09-07T01:07:46;16.60;99.90
11812;DHT22;5963;50.184;9.162;2023-09-07T01:10:16;16.70;99.90
11812;DHT22;5963;50.184;9.162;2023-09-07T01:12:45;16.70;99.90
11812;DHT22;5963;50.184;9.162;2023-09-07T01:15:14;16.70;99.90
11812;DHT22;5963;50.184;9.162;2023-09-07T01:17:42;16.60;99.90
11812;DHT22;5963;50.184;9.162;2023-09-07T01:20:13;16.60;99.90
11812;DHT22;5963;50.184;9.162;2023-09-07T01:22:45;16.60;99.90
11812;DHT22;5963;50.184;9.162;2023-09-07T01:25:14;16.60;99.90
11812;DHT22;5963;50.184;9.162;2023-09-07T01:27:42;16.60;99.90
11812;DHT22;5963;50.184;9.162;2023-09-07T01:30:10;16.60;99.90
11812;DHT22;5963;50.184;9.162;2023-09-07T01:32:39;16.60;99.90
11812;DHT22;5963;50.184;9.162;2023-09-07T01:35:10;16.50;99.90
11812;DHT22;5963;50.184;9.162;2023-09-07T01:37:39;16.60;99.90
11812;DHT22;5963;50.184;9.162;2023-09-07T01:40:09;16.60;99.90
11812;DHT22;5963;50.184;9.162;2023-09-07T01:42:37;16.60;99.90
11812;DHT22;5963;50.184;9.162;2023-09-07T01:45:06;16.60;99.90
11812;DHT22;5963;50.184;9.162;2023-09-07T01:47:34;16.60;99.90
11812;DHT22;5963;50.184;9.162;2023-09-07T01:50:02;16.60;99.90
11812;DHT22;5963;50.184;9.162;2023-09-07T01:52:30;16.60;99.90
11812;DHT22;5963;50.184;9.162;2023-09-07T01:54:59;16.60;99.90
11812;DHT22;5963;50.184;9.162;2023-09-07T01:57:28;16.60;99.90
11812;DHT22;5963;50.184;9.162;2023-09-07T01:59:56;16.60;99.90
11812;DHT22;5963;50.184;9.162;2023-09-07T02:02:25;16.50;99.90
11812;DHT22;5963;50.184;9.162;2023-09-07T02:04:53;16.50;99.90
11812;DHT22;5963;50.184;9.162;2023-09-07T02:07:21;16.40;99.90
11812;DHT22;5963;50.184;9.162;2023-09-07T02:09:49;16.30;99.90
11812;DHT22;5963;50.184;9.162;2023-09-07T02:12:18;16.30;99.90
11812;DHT22;5963;50.184;9.162;2023-09-07T02:14:47;16.20;99.90
11812;DHT22;5963;50.184;9.162;2023-09-07T02:17:15;16.10;99.90
11812;DHT22;5963;50.184;9.162;2023-09-07T02:19:45;16.00;99.90
11812;DHT22;5963;50.184;9.162;2023-09-07T02:22:13;15.90;99.90
11812;DHT22;5963;50.184;9.162;2023-09-07T02:24:41;15.90;99.90
11812;DHT22;5963;50.184;9.162;2023-09-07T02:27:09;15.80;99.90
11812;DHT22;5963;50.184;9.162;2023-09-07T02:29:37;15.80;99.90
11812;DHT22;5963;50.184;9.162;2023-09-07T02:32:06;15.60;99.90
11812;DHT22;5963;50.184;9.162;2023-09-07T02:34:35;15.60;99.90
11812;DHT22;5963;50.184;9.162;2023-09-07T02:37:06;15.60;99.90
11812;DHT22;5963;50.184;9.162;2023-09-07T02:39:34;15.50;99.90
11812;DHT22;5963;50.184;9.162;2023-09-07T02:42:03;15.50;99.90
11812;DHT22;5963;50.184;9.162;2023-09-07T02:44:32;15.40;99.90
11812;DHT22;5963;50.184;9.162;2023-09-07T02:47:00;15.20;99.90
11812;DHT22;5963;50.184;9.162;2023-09-07T02:49:29;15.20;99.90
11812;DHT22;5963;50.184;9.162;2023-09-07T02:51:57;15.20;99.90
11812;DHT22;5963;50.184;9.162;2023-09-07T02:54:25;15.10;99.90
11812;DHT22;5963;50.184;9.162;2023-09-07T02:56:52;15.00;99.90
11812;DHT22;5963;50.184;9.162;2023-09-07T02:59:20;15.00;99.90
11812;DHT22;5963;50.184;9.162;2023-09-07T03:01:48;14.90;99.90
11812;DHT22;5963;50.184;9.162;2023-09-07T03:04:16;14.90;99.90
11812;DHT22;5963;50.184;9.162;2023-09-07T03:06:45;14.80;99.90
11812;DHT22;5963;50.184;9.162;2023-09-07T03:09:13;14.90;99.90
11812;DHT22;5963;50.184;9.162;2023-09-07T03:11:44;14.80;99.90
11812;DHT22;5963;50.184;9.162;2023-09-07T03:14:12;14.90;99.90
11812;DHT22;5963;50.184;9.162;2023-09-07T03:16:40;14.90;99.90
11812;DHT22;5963;50.184;9.162;2023-09-07T03:19:08;14.90;99.90
11812;DHT22;5963;50.184;9.162;2023-09-07T03:21:36;15.00;99.90
11812;DHT22;5963;50.184;9.162;2023-09-07T03:24:08;15.00;99.90
11812;DHT22;5963;50.184;9.162;2023-09-07T03:26:36;15.00;99.90
11812;DHT22;5963;50.184;9.162;2023-09-07T03:29:04;15.00;99.90
11812;DHT22;5963;50.184;9.162;2023-09-07T03:31:32;15.00;99.90
11812;DHT22;5963;50.184;9.162;2023-09-07T03:34:00;15.00;99.90
11812;DHT22;5963;50.184;9.162;2023-09-07T03:36:28;15.00;99.90
11812;DHT22;5963;50.184;9.162;2023-09-07T03:38:57;15.00;99.90
11812;DHT22;5963;50.184;9.162;2023-09-07T03:41:26;15.00;99.90
11812;DHT22;5963;50.184;9.162;2023-09-07T03:43:57;15.00;99.90
11812;DHT22;5963;50.184;9.162;2023-09-07T03:46:30;15.00;99.90
11812;DHT22;5963;50.184;9.162;2023-09-07T03:48:58;15.00;99.90
11812;DHT22;5963;50.184;9.162;2023-09-07T03:51:26;15.00;99.90
11812;DHT22;5963;50.184;9.162;2023-09-07T03:53:54;15.10;99.90
11812;DHT22;5963;50.184;9.162;2023-09-07T03:56:22;15.10;99.90
11812;DHT22;5963;50.184;9.162;2023-09-07T03:58:51;15.20;99.90
11812;DHT22;5963;50.184;9.162;2023-09-07T04:01:19;15.20;99.90
11812;DHT22;5963;50.184;9.162;2023-09-07T04:03:48;15.20;99.90
11812;DHT22;5963;50.184;9.162;2023-09-07T04:06:17;15.20;99.90
11812;DHT22;5963;50.184;9.162;2023-09-07T04:08:48;15.30;99.90
11812;DHT22;5963;50.184;9.162;2023-09-07T04:11:16;15.30;99.90
11812;DHT22;5963;50.184;9.162;2023-09-07T04:13:44;15.20;99.90
11812;DHT22;5963;50.184;9.162;2023-09-07T04:16:13;15.20;99.90
11812;DHT22;5963;50.184;9.162;2023-09-07T04:18:41;15.20;99.90
11812;DHT22;5963;50.184;9.162;2023-09-07T04:21:14;15.20;99.90
11812;DHT22;5963;50.184;9.162;2023-09-07T04:23:42;15.10;99.90
11812;DHT22;5963;50.184;9.162;2023-09-07T04:26:11;15.10;99.90
11812;DHT22;5963;50.184;9.162;2023-09-07T04:28:40;15.10;99.90
11812;DHT22;5963;50.184;9.162;2023-09-07T04:31:10;15.00;99.90
11812;DHT22;5963;50.184;9.162;2023-09-07T04:33:39;15.00;99.90
11812;DHT22;5963;50.184;9.162;2023-09-07T04:36:08;15.00;99.90
11812;DHT22;5963;50.184;9.162;2023-09-07T04:38:36;15.00;99.90
11812;DHT22;5963;50.184;9.162;2023-09-07T04:41:08;14.90;99.90
11812;DHT22;5963;50.184;9.162;2023-09-07T04:43:37;14.90;99.90
11812;DHT22;5963;50.184;9.162;2023-09-07T04:46:07;14.90;99.90
11812;DHT22;5963;50.184;9.162;2023-09-07T04:48:35;14.90;99.90
11812;DHT22;5963;50.184;9.162;2023-09-07T04:51:05;14.90;99.90
11812;DHT22;5963;50.184;9.162;2023-09-07T04:53:37;15.00;99.90
11812;DHT22;5963;50.184;9.162;2023-09-07T04:56:06;15.00;99.90
11812;DHT22;5963;50.184;9.162;2023-09-07T04:58:35;15.10;99.90
11812;DHT22;5963;50.184;9.162;2023-09-07T05:01:04;15.20;99.90
11812;DHT22;5963;50.184;9.162;2023-09-07T05:03:32;15.20;99.90
11812;DHT22;5963;50.184;9.162;2023-09-07T05:06:01;15.30;99.90
11812;DHT22;5963;50.184;9.162;2023-09-07T05:08:31;15.30;99.90
11812;DHT22;5963;50.184;9.162;2023-09-07T05:11:00;15.30;99.90
11812;DHT22;5963;50.184;9.162;2023-09-07T05:13:30;15.50;99.90
11812;DHT22;5963;50.184;9.162;2023-09-07T05:15:59;15.50;99.90
11812;DHT22;5963;50.184;9.162;2023-09-07T05:18:27;15.50;99.90
11812;DHT22;5963;50.184;9.162;2023-09-07T05:20:56;15.60;99.90
11812;DHT22;5963;50.184;9.162;2023-09-07T05:23:24;15.60;99.90
11812;DHT22;5963;50.184;9.162;2023-09-07T05:25:55;15.70;99.90
11812;DHT22;5963;50.184;9.162;2023-09-07T05:28:23;15.80;99.90
11812;DHT22;5963;50.184;9.162;2023-09-07T05:30:51;15.80;99.90
11812;DHT22;5963;50.184;9.162;2023-09-07T05:33:19;15.90;99.90
11812;DHT22;5963;50.184;9.162;2023-09-07T05:35:47;16.00;99.90
11812;DHT22;5963;50.184;9.162;2023-09-07T05:38:15;16.30;99.90
11812;DHT22;5963;50.184;9.162;2023-09-07T05:40:44;16.70;99.90
11812;DHT22;5963;50.184;9.162;2023-09-07T05:43:14;17.40;99.90
11812;DHT22;5963;50.184;9.162;2023-09-07T05:45:44;18.20;99.90
11812;DHT22;5963;50.184;9.162;2023-09-07T05:48:12;18.40;99.90
11812;DHT22;5963;50.184;9.162;2023-09-07T05:50:43;18.60;99.90
11812;DHT22;5963;50.184;9.162;2023-09-07T05:53:11;19.10;99.90
11812;DHT22;5963;50.184;9.162;2023-09-07T05:55:39;19.50;99.90
11812;DHT22;5963;50.184;9.162;2023-09-07T05:58:08;19.40;99.90
11812;DHT22;5963;50.184;9.162;2023-09-07T06:00:37;19.20;99.90
11812;DHT22;5963;50.184;9.162;2023-09-07T06:03:07;19.10;99.90
11812;DHT22;5963;50.184;9.162;2023-09-07T06:05:36;19.70;99.90
11812;DHT22;5963;50.184;9.162;2023-09-07T06:08:05;19.50;99.90
11812;DHT22;5963;50.184;9.162;2023-09-07T06:10:34;19.80;99.90
11812;DHT22;5963;50.184;9.162;2023-09-07T06:13:02;19.70;99.90
11812;DHT22;5963;50.184;9.162;2023-09-07T06:15:30;19.60;99.90
11812;DHT22;5963;50.184;9.162;2023-09-07T06:18:00;19.50;99.90
11812;DHT22;5963;50.184;9.162;2023-09-07T06:20:28;20.00;99.90
11812;DHT22;5963;50.184;9.162;2023-09-07T06:22:56;20.20;99.90
11812;DHT22;5963;50.184;9.162;2023-09-07T06:25:24;20.00;99.90
11812;DHT22;5963;50.184;9.162;2023-09-07T06:27:54;19.90;99.90
11812;DHT22;5963;50.184;9.162;2023-09-07T06:30:22;19.70;99.90
11812;DHT22;5963;50.184;9.162;2023-09-07T06:32:50;19.10;99.90
11812;DHT22;5963;50.184;9.162;2023-09-07T06:35:21;18.90;99.90
11812;DHT22;5963;50.184;9.162;2023-09-07T06:37:49;19.00;99.90
11812;DHT22;5963;50.184;9.162;2023-09-07T06:40:17;19.20;99.90
11812;DHT22;5963;50.184;9.162;2023-09-07T06:42:47;19.30;99.90
11812;DHT22;5963;50.184;9.162;2023-09-07T06:45:15;19.30;99.90
11812;DHT22;5963;50.184;9.162;2023-09-07T06:47:44;19.30;99.90
11812;DHT22;5963;50.184;9.162;2023-09-07T06:50:12;19.40;99.90
11812;DHT22;5963;50.184;9.162;2023-09-07T06:52:41;19.30;99.90
11812;DHT22;5963;50.184;9.162;2023-09-07T06:55:09;19.30;99.90
11812;DHT22;5963;50.184;9.162;2023-09-07T06:57:37;19.20;99.90
11812;DHT22;5963;50.184;9.162;2023-09-07T07:00:06;19.30;99.90
11812;DHT22;5963;50.184;9.162;2023-09-07T07:02:35;19.10;99.90
11812;DHT22;5963;50.184;9.162;2023-09-07T07:05:03;19.30;99.90
11812;DHT22;5963;50.184;9.162;2023-09-07T07:07:31;19.50;99.90
11812;DHT22;5963;50.184;9.162;2023-09-07T07:10:01;19.40;99.90
11812;DHT22;5963;50.184;9.162;2023-09-07T07:12:30;19.30;99.90
11812;DHT22;5963;50.184;9.162;2023-09-07T07:15:01;19.60;99.90
11812;DHT22;5963;50.184;9.162;2023-09-07T07:17:29;19.90;99.90
11812;DHT22;5963;50.184;9.162;2023-09-07T07:19:57;20.00;99.90
11812;DHT22;5963;50.184;9.162;2023-09-07T07:22:26;20.10;99.90
11812;DHT22;5963;50.184;9.162;2023-09-07T07:24:54;20.10;99.90
11812;DHT22;5963;50.184;9.162;2023-09-07T07:27:23;20.50;99.90
11812;DHT22;5963;50.184;9.162;2023-09-07T07:29:51;20.70;99.90
11812;DHT22;5963;50.184;9.162;2023-09-07T07:32:19;20.70;99.90
11812;DHT22;5963;50.184;9.162;2023-09-07T07:34:49;20.60;99.90
11812;DHT22;5963;50.184;9.162;2023-09-07T07:37:20;20.70;99.90
11812;DHT22;5963;50.184;9.162;2023-09-07T07:39:48;20.70;99.90
11812;DHT22;5963;50.184;9.162;2023-09-07T07:42:16;21.00;99.90
11812;DHT22;5963;50.184;9.162;2023-09-07T07:44:46;20.90;99.90
11812;DHT22;5963;50.184;9.162;2023-09-07T07:47:14;21.10;99.90
11812;DHT22;5963;50.184;9.162;2023-09-07T07:49:43;21.30;99.90
11812;DHT22;5963;50.184;9.162;2023-09-07T07:52:11;21.40;99.90
11812;DHT22;5963;50.184;9.162;2023-09-07T07:54:39;21.80;99.90
11812;DHT22;5963;50.184;9.162;2023-09-07T07:57:07;21.90;99.90
11812;DHT22;5963;50.184;9.162;2023-09-07T07:59:37;22.10;99.90
11812;DHT22;5963;50.184;9.162;2023-09-07T08:02:07;22.40;99.90
11812;DHT22;5963;50.184;9.162;2023-09-07T08:04:35;22.40;99.90
11812;DHT22;5963;50.184;9.162;2023-09-07T08:07:03;22.50;99.90
11812;DHT22;5963;50.184;9.162;2023-09-07T08:09:32;22.50;99.90
11812;DHT22;5963;50.184;9.162;2023-09-07T08:12:00;22.70;99.90
11812;DHT22;5963;50.184;9.162;2023-09-07T08:14:30;23.00;99.90
11812;DHT22;5963;50.184;9.162;2023-09-07T08:16:58;23.30;99.90
11812;DHT22;5963;50.184;9.162;2023-09-07T08:19:30;23.40;99.90
11812;DHT22;5963;50.184;9.162;2023-09-07T08:21:59;23.40;99.90
11812;DHT22;5963;50.184;9.162;2023-09-07T08:24:30;23.60;99.90
11812;DHT22;5963;50.184;9.162;2023-09-07T08:26:58;23.90;99.90
11812;DHT22;5963;50.184;9.162;2023-09-07T08:29:27;24.00;99.90
11812;DHT22;5963;50.184;9.162;2023-09-07T08:31:59;24.10;99.90
11812;DHT22;5963;50.184;9.162;2023-09-07T08:34:32;24.10;99.90
11812;DHT22;5963;50.184;9.162;2023-09-07T08:37:03;24.30;99.90
11812;DHT22;5963;50.184;9.162;2023-09-07T08:39:33;24.30;99.90
11812;DHT22;5963;50.184;9.162;2023-09-07T08:42:01;24.50;99.90
11812;DHT22;5963;50.184;9.162;2023-09-07T08:44:32;24.70;99.90
11812;DHT22;5963;50.184;9.162;2023-09-07T08:47:02;24.80;99.90
11812;DHT22;5963;50.184;9.162;2023-09-07T08:49:32;25.00;99.90
11812;DHT22;5963;50.184;9.162;2023-09-07T08:52:02;25.20;99.90
11812;DHT22;5963;50.184;9.162;2023-09-07T08:54:33;25.10;99.90
11812;DHT22;5963;50.184;9.162;2023-09-07T08:57:03;25.10;99.90
11812;DHT22;5963;50.184;9.162;2023-09-07T08:59:31;25.40;99.90
11812;DHT22;5963;50.184;9.162;2023-09-07T09:01:59;25.50;99.90
11812;DHT22;5963;50.184;9.162;2023-09-07T09:04:29;25.60;99.90
11812;DHT22;5963;50.184;9.162;2023-09-07T09:06:59;25.60;99.90
11812;DHT22;5963;50.184;9.162;2023-09-07T09:09:30;25.80;99.90
11812;DHT22;5963;50.184;9.162;2023-09-07T09:12:06;26.00;99.90
11812;DHT22;5963;50.184;9.162;2023-09-07T09:14:35;26.10;99.90
11812;DHT22;5963;50.184;9.162;2023-09-07T09:17:06;26.10;99.90
11812;DHT22;5963;50.184;9.162;2023-09-07T09:19:40;26.30;99.90
11812;DHT22;5963;50.184;9.162;2023-09-07T09:22:11;26.20;99.90
11812;DHT22;5963;50.184;9.162;2023-09-07T09:24:40;26.00;99.90
11812;DHT22;5963;50.184;9.162;2023-09-07T09:27:08;26.20;99.90
11812;DHT22;5963;50.184;9.162;2023-09-07T09:29:36;26.50;99.90
11812;DHT22;5963;50.184;9.162;2023-09-07T09:32:05;27.00;99.90
11812;DHT22;5963;50.184;9.162;2023-09-07T09:34:35;27.00;99.90
11812;DHT22;5963;50.184;9.162;2023-09-07T09:37:04;27.00;99.90
11812;DHT22;5963;50.184;9.162;2023-09-07T09:39:35;26.30;99.90
11812;DHT22;5963;50.184;9.162;2023-09-07T09:42:07;26.50;99.90
11812;DHT22;5963;50.184;9.162;2023-09-07T09:44:41;26.60;99.90
11812;DHT22;5963;50.184;9.162;2023-09-07T09:47:10;27.00;99.90
11812;DHT22;5963;50.184;9.162;2023-09-07T09:49:43;27.30;99.90
11812;DHT22;5963;50.184;9.162;2023-09-07T09:52:14;27.40;99.90
11812;DHT22;5963;50.184;9.162;2023-09-07T09:54:46;27.40;99.90
11812;DHT22;5963;50.184;9.162;2023-09-07T09:57:15;27.30;99.90
11812;DHT22;5963;50.184;9.162;2023-09-07T09:59:45;27.30;99.90
11812;DHT22;5963;50.184;9.162;2023-09-07T10:02:19;27.00;99.90
11812;DHT22;5963;50.184;9.162;2023-09-07T10:04:49;27.10;99.90
11812;DHT22;5963;50.184;9.162;2023-09-07T10:07:19;27.40;99.90
11812;DHT22;5963;50.184;9.162;2023-09-07T10:09:48;27.70;99.90
11812;DHT22;5963;50.184;9.162;2023-09-07T10:12:27;27.50;99.90
11812;DHT22;5963;50.184;9.162;2023-09-07T10:14:56;27.80;99.90
11812;DHT22;5963;50.184;9.162;2023-09-07T10:17:24;27.80;99.90
11812;DHT22;5963;50.184;9.162;2023-09-07T10:20:02;27.50;99.90
11812;DHT22;5963;50.184;9.162;2023-09-07T10:22:32;27.50;99.90
11812;DHT22;5963;50.184;9.162;2023-09-07T10:25:03;27.80;99.90
11812;DHT22;5963;50.184;9.162;2023-09-07T10:27:37;27.80;99.90
11812;DHT22;5963;50.184;9.162;2023-09-07T10:30:11;27.90;99.90
11812;DHT22;5963;50.184;9.162;2023-09-07T10:32:43;28.00;99.90
11812;DHT22;5963;50.184;9.162;2023-09-07T10:35:18;28.30;99.90
11812;DHT22;5963;50.184;9.162;2023-09-07T10:37:48;28.50;99.90
11812;DHT22;5963;50.184;9.162;2023-09-07T10:40:24;28.40;99.90
11812;DHT22;5963;50.184;9.162;2023-09-07T10:43:01;28.00;99.90
11812;DHT22;5963;50.184;9.162;2023-09-07T10:45:29;27.60;99.90
11812;DHT22;5963;50.184;9.162;2023-09-07T10:47:59;28.10;99.90
11812;DHT22;5963;50.184;9.162;2023-09-07T10:50:28;27.90;99.90
11812;DHT22;5963;50.184;9.162;2023-09-07T10:52:57;27.90;99.90
11812;DHT22;5963;50.184;9.162;2023-09-07T10:55:27;28.20;99.90
11812;DHT22;5963;50.184;9.162;2023-09-07T10:57:55;28.20;99.90
11812;DHT22;5963;50.184;9.162;2023-09-07T11:00:30;28.10;99.90
11812;DHT22;5963;50.184;9.162;2023-09-07T11:02:58;28.20;99.90
11812;DHT22;5963;50.184;9.162;2023-09-07T11:05:28;28.60;99.90
11812;DHT22;5963;50.184;9.162;2023-09-07T11:08:08;28.70;99.90
11812;DHT22;5963;50.184;9.162;2023-09-07T11:10:38;29.10;99.90
11812;DHT22;5963;50.184;9.162;2023-09-07T11:13:06;28.90;99.90
11812;DHT22;5963;50.184;9.162;2023-09-07T11:15:35;28.80;99.90
11812;DHT22;5963;50.184;9.162;2023-09-07T11:18:07;28.90;99.90
11812;DHT22;5963;50.184;9.162;2023-09-07T11:20:36;28.80;99.90
11812;DHT22;5963;50.184;9.162;2023-09-07T11:23:11;28.50;99.90
11812;DHT22;5963;50.184;9.162;2023-09-07T11:25:43;28.80;99.90
11812;DHT22;5963;50.184;9.162;2023-09-07T11:28:12;29.20;99.90
11812;DHT22;5963;50.184;9.162;2023-09-07T11:30:54;29.20;99.90
11812;DHT22;5963;50.184;9.162;2023-09-07T11:33:26;29.20;99.90
11812;DHT22;5963;50.184;9.162;2023-09-07T11:35:56;29.50;99.90
11812;DHT22;5963;50.184;9.162;2023-09-07T11:38:36;29.30;99.90
11812;DHT22;5963;50.184;9.162;2023-09-07T11:41:08;29.10;99.90
11812;DHT22;5963;50.184;9.162;2023-09-07T11:43:36;29.40;99.90
11812;DHT22;5963;50.184;9.162;2023-09-07T11:46:06;29.10;99.90
11812;DHT22;5963;50.184;9.162;2023-09-07T11:48:40;29.20;99.90
11812;DHT22;5963;50.184;9.162;2023-09-07T11:51:08;28.80;99.90
11812;DHT22;5963;50.184;9.162;2023-09-07T11:53:42;28.80;99.90
11812;DHT22;5963;50.184;9.162;2023-09-07T11:56:12;28.90;99.90
11812;DHT22;5963;50.184;9.162;2023-09-07T11:58:42;29.40;99.90
11812;DHT22;5963;50.184;9.162;2023-09-07T12:01:21;30.00;99.90
11812;DHT22;5963;50.184;9.162;2023-09-07T12:03:50;30.30;99.90
11812;DHT22;5963;50.184;9.162;2023-09-07T12:06:18;30.00;99.90
11812;DHT22;5963;50.184;9.162;2023-09-07T12:08:59;29.50;99.90
11812;DHT22;5963;50.184;9.162;2023-09-07T12:11:29;29.80;99.90
11812;DHT22;5963;50.184;9.162;2023-09-07T12:13:59;29.20;99.90
11812;DHT22;5963;50.184;9.162;2023-09-07T12:16:27;29.60;99.90
11812;DHT22;5963;50.184;9.162;2023-09-07T12:18:56;29.50;99.90
11812;DHT22;5963;50.184;9.162;2023-09-07T12:21:26;29.90;99.90
11812;DHT22;5963;50.184;9.162;2023-09-07T12:23:59;29.90;99.90
11812;DHT22;5963;50.184;9.162;2023-09-07T12:26:29;30.10;99.90
11812;DHT22;5963;50.184;9.162;2023-09-07T12:29:05;29.70;99.90
11812;DHT22;5963;50.184;9.162;2023-09-07T12:31:34;29.90;99.90
11812;DHT22;5963;50.184;9.162;2023-09-07T12:34:05;30.10;99.90
11812;DHT22;5963;50.184;9.162;2023-09-07T12:36:37;30.00;99.90
11812;DHT22;5963;50.184;9.162;2023-09-07T12:39:05;30.40;99.90
11812;DHT22;5963;50.184;9.162;2023-09-07T12:41:36;30.40;99.90
11812;DHT22;5963;50.184;9.162;2023-09-07T12:44:08;30.40;99.90
11812;DHT22;5963;50.184;9.162;2023-09-07T12:46:36;30.60;99.90
11812;DHT22;5963;50.184;9.162;2023-09-07T12:49:07;30.70;99.90
11812;DHT22;5963;50.184;9.162;2023-09-07T12:51:41;29.80;99.90
11812;DHT22;5963;50.184;9.162;2023-09-07T12:54:11;30.00;99.90
11812;DHT22;5963;50.184;9.162;2023-09-07T12:56:41;30.40;99.90
11812;DHT22;5963;50.184;9.162;2023-09-07T12:59:09;30.40;99.90
11812;DHT22;5963;50.184;9.162;2023-09-07T13:01:37;30.60;99.90
11812;DHT22;5963;50.184;9.162;2023-09-07T13:04:06;30.70;99.90
11812;DHT22;5963;50.184;9.162;2023-09-07T13:06:34;30.20;99.90
11812;DHT22;5963;50.184;9.162;2023-09-07T13:09:05;30.00;99.90
11812;DHT22;5963;50.184;9.162;2023-09-07T13:11:34;29.80;99.90
11812;DHT22;5963;50.184;9.162;2023-09-07T13:14:04;30.20;99.90
11812;DHT22;5963;50.184;9.162;2023-09-07T13:16:38;30.40;99.90
11812;DHT22;5963;50.184;9.162;2023-09-07T13:19:06;30.10;99.90
11812;DHT22;5963;50.184;9.162;2023-09-07T13:21:37;30.30;99.90
11812;DHT22;5963;50.184;9.162;2023-09-07T13:24:05;30.00;99.90
11812;DHT22;5963;50.184;9.162;2023-09-07T13:26:34;29.90;99.90
11812;DHT22;5963;50.184;9.162;2023-09-07T13:29:05;29.80;99.90
11812;DHT22;5963;50.184;9.162;2023-09-07T13:31:33;29.60;99.90
11812;DHT22;5963;50.184;9.162;2023-09-07T13:34:02;29.40;99.90
11812;DHT22;5963;50.184;9.162;2023-09-07T13:36:30;30.00;99.90
11812;DHT22;5963;50.184;9.162;2023-09-07T13:38:58;30.00;99.90
11812;DHT22;5963;50.184;9.162;2023-09-07T13:41:28;29.70;99.90
11812;DHT22;5963;50.184;9.162;2023-09-07T13:43:56;29.80;99.90
11812;DHT22;5963;50.184;9.162;2023-09-07T13:46:27;30.20;99.90
11812;DHT22;5963;50.184;9.162;2023-09-07T13:48:56;30.50;99.90
11812;DHT22;5963;50.184;9.162;2023-09-07T13:51:24;30.40;99.90
11812;DHT22;5963;50.184;9.162;2023-09-07T13:53:55;30.00;99.90
11812;DHT22;5963;50.184;9.162;2023-09-07T13:56:25;29.60;99.90
11812;DHT22;5963;50.184;9.162;2023-09-07T13:58:52;29.60;99.90
11812;DHT22;5963;50.184;9.162;2023-09-07T14:01:20;29.80;99.90
11812;DHT22;5963;50.184;9.162;2023-09-07T14:03:51;29.90;99.90
11812;DHT22;5963;50.184;9.162;2023-09-07T14:06:19;29.80;99.90
11812;DHT22;5963;50.184;9.162;2023-09-07T14:08:50;29.70;99.90
11812;DHT22;5963;50.184;9.162;2023-09-07T14:11:19;29.90;99.90
11812;DHT22;5963;50.184;9.162;2023-09-07T14:13:49;29.90;99.90
11812;DHT22;5963;50.184;9.162;2023-09-07T14:16:18;30.00;99.90
11812;DHT22;5963;50.184;9.162;2023-09-07T14:18:47;30.10;99.90
11812;DHT22;5963;50.184;9.162;2023-09-07T14:21:18;29.60;99.90
11812;DHT22;5963;50.184;9.162;2023-09-07T14:23:46;29.80;99.90
11812;DHT22;5963;50.184;9.162;2023-09-07T14:26:14;29.60;99.90
11812;DHT22;5963;50.184;9.162;2023-09-07T14:28:42;29.70;99.90
11812;DHT22;5963;50.184;9.162;2023-09-07T14:31:10;29.40;99.90
11812;DHT22;5963;50.184;9.162;2023-09-07T14:33:38;29.50;99.90
11812;DHT22;5963;50.184;9.162;2023-09-07T14:36:09;29.70;99.90
11812;DHT22;5963;50.184;9.162;2023-09-07T14:38:40;30.10;99.90
11812;DHT22;5963;50.184;9.162;2023-09-07T14:41:11;30.10;99.90
11812;DHT22;5963;50.184;9.162;2023-09-07T14:43:46;29.90;99.90
11812;DHT22;5963;50.184;9.162;2023-09-07T14:46:15;29.50;99.90
11812;DHT22;5963;50.184;9.162;2023-09-07T14:48:44;29.40;99.90
11812;DHT22;5963;50.184;9.162;2023-09-07T14:51:14;29.40;99.90
11812;DHT22;5963;50.184;9.162;2023-09-07T14:53:44;29.30;99.90
11812;DHT22;5963;50.184;9.162;2023-09-07T14:56:13;29.30;99.90
11812;DHT22;5963;50.184;9.162;2023-09-07T14:58:41;29.40;99.90
11812;DHT22;5963;50.184;9.162;2023-09-07T15:01:09;29.30;99.90
11812;DHT22;5963;50.184;9.162;2023-09-07T15:03:37;29.30;99.90
11812;DHT22;5963;50.184;9.162;2023-09-07T15:06:09;29.10;99.90
11812;DHT22;5963;50.184;9.162;2023-09-07T15:08:39;29.10;99.90
11812;DHT22;5963;50.184;9.162;2023-09-07T15:11:08;29.20;99.90
11812;DHT22;5963;50.184;9.162;2023-09-07T15:13:39;29.30;99.90
11812;DHT22;5963;50.184;9.162;2023-09-07T15:16:08;29.30;99.90
11812;DHT22;5963;50.184;9.162;2023-09-07T15:18:37;29.30;99.90
11812;DHT22;5963;50.184;9.162;2023-09-07T15:21:10;29.20;99.90
11812;DHT22;5963;50.184;9.162;2023-09-07T15:23:38;28.90;99.90
11812;DHT22;5963;50.184;9.162;2023-09-07T15:26:08;29.00;99.90
11812;DHT22;5963;50.184;9.162;2023-09-07T15:28:37;29.20;99.90
11812;DHT22;5963;50.184;9.162;2023-09-07T15:31:06;28.90;99.90
11812;DHT22;5963;50.184;9.162;2023-09-07T15:33:34;28.60;99.90
11812;DHT22;5963;50.184;9.162;2023-09-07T15:36:03;28.60;99.90
11812;DHT22;5963;50.184;9.162;2023-09-07T15:38:31;28.60;99.90
11812;DHT22;5963;50.184;9.162;2023-09-07T15:40:59;28.70;99.90
11812;DHT22;5963;50.184;9.162;2023-09-07T15:43:32;28.50;99.90
11812;DHT22;5963;50.184;9.162;2023-09-07T15:46:00;28.60;99.90
11812;DHT22;5963;50.184;9.162;2023-09-07T15:48:29;28.50;99.90
11812;DHT22;5963;50.184;9.162;2023-09-07T15:50:59;28.50;99.90
11812;DHT22;5963;50.184;9.162;2023-09-07T15:53:27;28.50;99.90
11812;DHT22;5963;50.184;9.162;2023-09-07T15:55:59;28.30;99.90
11812;DHT22;5963;50.184;9.162;2023-09-07T15:58:27;28.20;99.90